Thompson Falls, Montana
Current Conditions -  °F | °C
As of 7:53 AM on Sunday 23 Nov 2014 (Local Time) from KMLP Reporting Station
Haze Haze  
Wind Chill: 24°   Ceiling: 100
Heat Index: 24°   Visibility: 0.75mi
Dew Point: 21°   Wind: 3mph
Humidity: 88%   Direction: NA
Pressure: 30.01"   Gusts: NA
Location:  47.6°N, 115.34°W
Report Text: KMLP 231453Z AUTO VRB03KT 3/4SM BR VV001 M04/M06 A3001 RMK AO2 SLP206 T10441061 51014
Loading
Personal Weather Stations






























Interactive Weather Map New forecast layout! Learn more

10-Day Weather Forecast

Advertisements
Track Severe Weather on mobile